Schedule Details


Flight Number: CTN700
Departure: Franjo Tudman (LDZA) at 08:00
Arrival: Lisbon (LPPT) at 10:15
Route: KOTOR?UT742?NAKIT?UL615?ROTAR?DCT?BENUS?DCT?IVLOX?DCT?DORAV?DCT?BORDI?UZ185?KOLON?UM984?DIVKO?UN975?BGR?UQ47?ASTRO?UM985?YES?UN747?SVL?UM744?ROSAL?UZ227?EXONA

Weather Information
LDZA 251700Z 08004KT 040V120 9999 FEW038 27/19 Q1018 NOSIG
LPPT 251700Z 32011KT 280V350 9999 FEW035 24/14 Q1013
Schedule Frequency

Route Map